Time;durP1;ratioP1;P1;durP2;ratioP2;P2;SDS_P1;SDS_P2;PMS_P1;PMS_P2;Temp;Humidity;BMP_temperature;BMP_pressure;BME280_temperature;BME280_humidity;BME280_pressure;Samples;Min_cycle;Max_cycle;Signal;HPM_P1;HPM_P2
2021/08/22 00:01:06;;;;;;;;;;;;;;;;;;;;;
2021/08/22 00:04:27;;;;;;;11.45;9.45;;;18.30;99.90;;;;;;6196538;23;20037;-91
2021/08/22 00:07:36;;;;;;;15.95;9.25;;;18.40;99.90;;;;;;6223891;23;20415;-92
2021/08/22 00:10:53;;;;;;;14.80;8.90;;;18.50;99.90;;;;;;6219338;23;20082;-91
2021/08/22 00:14:12;;;;;;;;;;;;;;;;;;;;;
2021/08/22 00:17:35;;;;;;;12.73;10.23;;;18.60;99.90;;;;;;6246877;22;20042;-91
2021/08/22 00:20:49;;;;;;;7.95;4.90;;;18.60;99.90;;;;;;6221919;23;20025;-90
2021/08/22 00:23:53;;;;;;;;;;;;;;;;;;;;;
2021/08/22 00:27:06;;;;;;;11.43;5.45;;;17.70;99.90;;;;;;6136817;23;20026;-92
2021/08/22 00:30:24;;;;;;;15.20;5.05;;;17.30;99.90;;;;;;6041902;23;20023;-90
2021/08/22 00:33:22;;;;;;;21.13;5.63;;;16.90;99.90;;;;;;6042343;23;20023;-90
2021/08/22 00:36:47;;;;;;;;;;;;;;;;;;;;;
2021/08/22 00:39:59;;;;;;;9.75;5.70;;;16.40;99.90;;;;;;6042530;23;20695;-92
2021/08/22 06:35:07;;;;;;;;;;;;;;;;;;;;;
2021/08/22 06:38:32;;;;;;;;;;;;;;;;;;;;;
2021/08/22 06:43:04;;;;;;;8.73;6.88;;;17.40;99.90;;;;;;5967874;24;20112;-91
2021/08/22 06:46:41;;;;;;;9.02;7.20;;;17.50;99.90;;;;;;5969186;24;20028;-94
2021/08/22 06:50:49;;;;;;;9.32;6.80;;;17.60;99.90;;;;;;5803979;24;20045;-91
2021/08/22 06:58:06;;;;;;;9.57;6.73;;;17.80;99.90;;;;;;5752433;24;20324;-91
2021/08/22 07:08:28;;;;;;;;;;;;;;;;;;;;;
2021/08/22 07:12:01;;;;;;;5.80;5.07;;;17.80;99.90;;;;;;5968902;23;20087;-90
2021/08/22 07:14:54;;;;;;;6.38;5.28;;;17.80;99.90;;;;;;6055652;23;20031;-91
2021/08/22 07:17:51;;;;;;;17.45;6.07;;;17.80;99.90;;;;;;6145911;23;20025;-92
2021/08/22 07:21:52;;;;;;;8.15;5.57;;;17.80;99.90;;;;;;6123113;23;20026;-90
2021/08/22 07:25:41;;;;;;;7.97;6.10;;;17.80;99.90;;;;;;5996025;24;20024;-89
2021/08/22 07:29:01;;;;;;;;;;;;;;;;;;;;;
2021/08/22 07:35:54;;;;;;;9.45;5.75;;;18.10;99.90;;;;;;5969342;23;20032;-89
2021/08/22 07:38:48;;;;;;;9.50;6.03;;;18.30;99.90;;;;;;5987825;24;20158;-91
2021/08/22 07:42:05;;;;;;;9.90;7.20;;;18.40;99.90;;;;;;5992706;23;20012;-90
2021/08/22 07:45:42;;;;;;;9.32;5.45;;;18.40;99.90;;;;;;5988106;23;20024;-87
2021/08/22 07:49:09;;;;;;;7.88;6.10;;;18.40;99.90;;;;;;6000276;23;20100;-94
2021/08/22 07:52:36;;;;;;;7.47;5.72;;;18.40;99.90;;;;;;6092593;23;20026;-93
2021/08/22 07:59:57;;;;;;;7.63;4.97;;;18.60;99.90;;;;;;6006091;23;20019;-93
2021/08/22 08:02:55;;;;;;;6.63;4.90;;;18.90;99.90;;;;;;6014155;23;20042;-91
2021/08/22 08:06:07;;;;;;;10.00;6.15;;;18.90;99.90;;;;;;6017180;23;20114;-92
2021/08/22 08:09:24;;;;;;;6.55;5.15;;;19.10;99.90;;;;;;5932637;24;20425;-89
2021/08/22 08:26:42;;;;;;;6.90;4.90;;;19.40;99.90;;;;;;5801357;22;10163725;-92
2021/08/22 08:29:32;;;;;;;5.38;4.80;;;20.20;99.90;;;;;;6210119;23;20029;-92
2021/08/22 08:33:08;;;;;;;;;;;;;;;;;;;;;
2021/08/22 08:36:40;;;;;;;8.88;5.25;;;20.20;99.90;;;;;;6215671;23;20035;-94
2021/08/22 08:39:31;;;;;;;6.75;4.45;;;20.30;99.90;;;;;;6236093;23;20078;-92
2021/08/22 08:42:50;;;;;;;6.68;4.75;;;20.40;99.90;;;;;;6233859;23;20040;-91
2021/08/22 08:50:10;;;;;;;7.75;5.15;;;20.90;99.90;;;;;;5979622;23;20029;-91
2021/08/22 08:54:04;;;;;;;6.00;4.47;;;21.40;99.90;;;;;;5922837;24;20109;-90
2021/08/22 08:57:34;;;;;;;8.48;5.25;;;21.30;99.90;;;;;;5889590;24;20067;-92
2021/08/22 09:00:34;;;;;;;6.47;4.68;;;21.10;99.90;;;;;;5878222;24;20013;-92
2021/08/22 09:04:15;;;;;;;8.65;5.20;;;20.90;99.90;;;;;;5915872;24;20069;-90
2021/08/22 09:24:01;;;;;;;;;;;;;;;;;;;;;
2021/08/22 09:32:08;;;;;;;7.10;5.03;;;20.90;99.90;;;;;;5861160;24;20049;-90
2021/08/22 09:35:49;;;;;;;7.35;5.38;;;20.80;99.90;;;;;;5881132;24;20097;-90
2021/08/22 09:43:01;;;;;;;10.05;7.05;;;20.60;99.90;;;;;;5844820;24;20081;-91
2021/08/22 09:50:45;;;;;;;9.65;5.82;;;20.70;99.90;;;;;;5881411;24;20086;-94
2021/08/22 09:54:09;;;;;;;;;;;;;;;;;;;;;
2021/08/22 09:58:12;;;;;;;;;;;;;;;;;;;;;
2021/08/22 10:05:50;;;;;;;6.80;5.20;;;20.50;99.90;;;;;;5869259;24;20092;-91
2021/08/22 11:32:31;;;;;;;;;;;;;;;;;;;;;
2021/08/22 11:49:38;;;;;;;9.27;5.80;;;20.10;99.90;;;;;;5911689;24;20017;-92
2021/08/22 12:00:17;;;;;;;;;;;;;;;;;;;;;
2021/08/22 12:04:07;;;;;;;10.15;6.60;;;19.10;99.90;;;;;;5975165;23;20038;-93
2021/08/22 12:07:02;;;;;;;7.32;6.00;;;19.00;99.90;;;;;;6161809;23;20025;-94
2021/08/22 12:10:05;;;;;;;6.22;5.13;;;18.90;99.90;;;;;;6219591;23;20095;-92
2021/08/22 12:17:59;;;;;;;;;;;;;;;;;;;;;
2021/08/22 12:21:21;;;;;;;;;;;;;;;;;;;;;
2021/08/22 12:24:47;;;;;;;4.10;3.70;;;18.20;99.90;;;;;;6110677;23;20030;-92
2021/08/22 12:27:53;;;;;;;6.38;4.13;;;18.10;99.90;;;;;;6106775;23;20035;-92
2021/08/22 12:35:41;;;;;;;6.15;4.47;;;17.90;99.90;;;;;;6095647;23;20157;-93
2021/08/22 14:23:56;;;;;;;;;;;;;;;;;;;;;
2021/08/22 15:14:31;;;;;;;5.78;3.13;;;18.70;99.90;;;;;;6121887;23;20017;-90
2021/08/22 15:25:29;;;;;;;;;;;;;;;;;;;;;
2021/08/22 15:28:52;;;;;;;5.05;3.50;;;18.30;99.90;;;;;;5883899;24;19971;-90
2021/08/22 15:31:51;;;;;;;3.95;3.60;;;18.10;99.90;;;;;;5886306;24;20076;-90
2021/08/22 15:35:23;;;;;;;6.85;4.05;;;18.00;99.90;;;;;;5887256;24;20034;-90
2021/08/22 15:59:40;;;;;;;7.30;5.35;;;17.20;99.90;;;;;;5874488;24;20263;-90
2021/08/22 16:23:00;;;;;;;5.72;3.30;;;16.20;99.90;;;;;;6228600;23;20028;-92
2021/08/22 16:56:57;;;;;;;2.70;1.60;;;15.90;99.90;;;;;;6056998;22;4732081;-91
2021/08/22 17:00:48;;;;;;;5.55;1.80;;;16.00;99.90;;;;;;6081530;23;20022;-91
2021/08/22 17:09:14;;;;;;;;;;;;;;;;;;;;;
2021/08/22 17:16:25;;;;;;;5.90;2.10;;;16.20;99.90;;;;;;5784464;24;20045;-90
2021/08/22 17:19:13;;;;;;;4.38;2.28;;;16.10;99.90;;;;;;5903754;23;20020;-89
2021/08/22 17:22:28;;;;;;;5.55;2.60;;;16.00;99.90;;;;;;6021640;23;20112;-92
2021/08/22 17:25:19;;;;;;;3.90;2.75;;;15.90;99.90;;;;;;6066267;23;20035;-91
2021/08/22 17:28:25;;;;;;;5.75;3.42;;;15.90;99.90;;;;;;6198278;23;20025;-91
2021/08/22 17:31:35;;;;;;;8.63;5.03;;;15.80;99.90;;;;;;6164295;23;20033;-92
2021/08/22 17:34:37;;;;;;;9.35;5.97;;;15.60;99.90;;;;;;6198832;23;20060;-92
2021/08/22 17:37:24;;;;;;;5.70;3.67;;;15.60;99.90;;;;;;6196823;23;20028;-90
2021/08/22 17:40:12;;;;;;;7.60;4.00;;;15.50;99.90;;;;;;6196495;23;20032;-91
2021/08/22 17:43:11;;;;;;;13.35;3.58;;;15.40;99.90;;;;;;6197529;23;20041;-92
2021/08/22 17:45:59;;;;;;;6.45;3.97;;;15.30;99.90;;;;;;6194733;23;20471;-90
2021/08/22 17:48:46;;;;;;;7.00;3.88;;;15.30;99.90;;;;;;6193055;23;20033;-90
2021/08/22 17:51:38;;;;;;;6.30;4.30;;;15.20;99.90;;;;;;6191919;23;20112;-94
2021/08/22 17:54:35;;;;;;;8.10;4.55;;;15.10;99.90;;;;;;6189854;23;20088;-92
2021/08/22 17:57:26;;;;;;;9.65;5.90;;;15.10;99.90;;;;;;6166005;23;20025;-91
2021/08/22 18:00:14;;;;;;;7.95;5.38;;;14.90;99.90;;;;;;6190993;23;20021;-91
2021/08/22 18:03:11;;;;;;;8.82;5.50;;;14.90;99.90;;;;;;6189095;23;20028;-89
2021/08/22 18:06:00;;;;;;;12.25;5.57;;;14.70;99.90;;;;;;6191388;23;20021;-90
2021/08/22 18:09:00;;;;;;;9.00;4.93;;;14.60;99.90;;;;;;6188779;23;20029;-91
2021/08/22 18:11:48;;;;;;;11.13;6.07;;;14.50;99.90;;;;;;6169082;23;20372;-91
2021/08/22 18:14:39;;;;;;;8.25;6.45;;;14.40;99.90;;;;;;6188673;23;20029;-93
2021/08/22 18:17:28;;;;;;;14.25;6.57;;;14.20;99.90;;;;;;6194334;23;20032;-92
2021/08/22 18:20:17;;;;;;;11.60;6.82;;;14.30;99.90;;;;;;6202018;23;20029;-89
2021/08/22 18:23:07;;;;;;;11.65;7.32;;;14.30;99.90;;;;;;6202851;23;20032;-89
2021/08/22 18:25:54;;;;;;;10.30;7.22;;;14.20;99.90;;;;;;6183327;23;20017;-89
2021/08/22 18:28:42;;;;;;;12.05;8.35;;;14.10;99.90;;;;;;6206582;23;20055;-89
2021/08/22 18:31:32;;;;;;;13.40;7.15;;;14.10;99.90;;;;;;6208244;23;20027;-89
2021/08/22 18:34:21;;;;;;;12.55;8.63;;;14.00;99.90;;;;;;6205642;23;20025;-88
2021/08/22 18:37:10;;;;;;;12.73;7.57;;;14.00;99.90;;;;;;6201985;23;20052;-90
2021/08/22 18:39:57;;;;;;;11.57;8.00;;;13.90;99.90;;;;;;6199907;23;20085;-90
2021/08/22 18:42:56;;;;;;;12.80;6.70;;;13.70;99.90;;;;;;6195446;23;20018;-91
2021/08/22 18:45:43;;;;;;;9.98;6.90;;;13.80;99.90;;;;;;6156194;23;20058;-90
2021/08/22 18:48:37;;;;;;;9.80;6.88;;;13.80;99.90;;;;;;6196654;23;20071;-92
2021/08/22 18:51:28;;;;;;;14.07;8.75;;;13.80;99.90;;;;;;6194053;23;20029;-91
2021/08/22 18:54:16;;;;;;;13.82;7.32;;;13.90;99.90;;;;;;6168835;23;20021;-92
2021/08/22 18:57:07;;;;;;;13.18;8.45;;;13.90;99.90;;;;;;6190909;23;20274;-90
2021/08/22 18:59:56;;;;;;;13.10;9.00;;;13.90;99.90;;;;;;6188401;23;20100;-90
2021/08/22 19:02:44;;;;;;;15.32;8.88;;;13.80;99.90;;;;;;6189065;23;20053;-92
2021/08/22 19:05:31;;;;;;;13.52;8.25;;;13.80;99.90;;;;;;6192192;23;20033;-89
2021/08/22 19:08:22;;;;;;;13.90;8.00;;;13.70;99.90;;;;;;6166892;23;20029;-91
2021/08/22 19:11:11;;;;;;;14.13;7.90;;;13.60;99.90;;;;;;6188170;23;20039;-92
2021/08/22 19:13:59;;;;;;;13.93;7.82;;;13.50;99.90;;;;;;6188318;23;20137;-91
2021/08/22 19:16:49;;;;;;;11.18;8.23;;;13.40;99.90;;;;;;6187996;23;20029;-91
2021/08/22 19:19:39;;;;;;;13.65;8.38;;;13.40;99.90;;;;;;6197637;23;20036;-90
2021/08/22 19:22:26;;;;;;;12.13;8.35;;;13.50;99.90;;;;;;6188791;23;20025;-87
2021/08/22 19:25:14;;;;;;;13.88;8.65;;;13.50;99.90;;;;;;6187549;23;20112;-90
2021/08/22 19:28:02;;;;;;;13.45;9.02;;;13.50;99.90;;;;;;6168077;23;20033;-89
2021/08/22 19:30:54;;;;;;;13.88;8.45;;;13.50;99.90;;;;;;6168151;23;20028;-91
2021/08/22 19:33:41;;;;;;;14.10;8.98;;;13.50;99.90;;;;;;6170806;23;20033;-88
2021/08/22 19:36:37;;;;;;;13.13;8.82;;;13.60;99.90;;;;;;6193180;23;20085;-91
2021/08/22 19:39:29;;;;;;;18.05;9.02;;;13.60;99.90;;;;;;6153060;23;20036;-91
2021/08/22 19:42:22;;;;;;;12.35;9.02;;;13.60;99.90;;;;;;6195840;23;20025;-93
2021/08/22 19:45:38;;;;;;;16.85;8.80;;;13.50;99.90;;;;;;6190884;23;20025;-91
2021/08/22 19:48:41;;;;;;;13.35;9.27;;;13.50;99.90;;;;;;6192438;23;20051;-91
2021/08/22 19:51:30;;;;;;;13.35;9.40;;;13.50;99.90;;;;;;6193041;23;20108;-92
2021/08/22 19:54:47;;;;;;;17.48;9.07;;;13.50;99.90;;;;;;6186257;23;20104;-91
2021/08/22 19:57:37;;;;;;;11.63;7.63;;;13.50;99.90;;;;;;6171743;23;20044;-92
2021/08/22 20:00:49;;;;;;;10.80;7.80;;;13.50;99.90;;;;;;6168072;23;20040;-90
2021/08/22 20:03:41;;;;;;;10.18;7.38;;;13.50;99.90;;;;;;6191313;23;20344;-90
2021/08/22 20:06:29;;;;;;;8.73;6.68;;;13.70;99.90;;;;;;6190341;23;20059;-90
2021/08/22 20:09:23;;;;;;;10.40;6.63;;;13.60;99.90;;;;;;6150223;23;20025;-91
2021/08/22 20:12:14;;;;;;;9.50;6.53;;;13.70;99.90;;;;;;6190913;23;20360;-90
2021/08/22 20:15:18;;;;;;;12.37;6.00;;;13.70;99.90;;;;;;6193771;23;20029;-93
2021/08/22 20:18:31;;;;;;;10.50;6.43;;;13.70;99.90;;;;;;6159060;23;20017;-90
2021/08/22 20:21:25;;;;;;;9.95;6.18;;;13.70;99.90;;;;;;6173585;23;20072;-92
2021/08/22 20:24:14;;;;;;;10.82;6.78;;;13.70;99.90;;;;;;6193678;23;20028;-90
2021/08/22 20:27:21;;;;;;;;;;;;;;;;;;;;;
2021/08/22 20:30:19;;;;;;;11.00;7.10;;;13.60;99.90;;;;;;6196649;23;20036;-92
2021/08/22 20:33:12;;;;;;;10.43;6.72;;;13.50;99.90;;;;;;6196099;23;20049;-90
2021/08/22 20:36:04;;;;;;;;;;;13.50;99.90;;;;;;6195084;23;20045;-92
2021/08/22 20:38:59;;;;;;;10.43;6.75;;;13.50;99.90;;;;;;6176574;23;19916;-91
2021/08/22 20:41:52;;;;;;;10.63;6.85;;;13.40;99.90;;;;;;6192192;23;20076;-90
2021/08/22 20:44:43;;;;;;;10.73;7.38;;;13.40;99.90;;;;;;6168600;23;20040;-90
2021/08/22 20:47:31;;;;;;;12.02;6.63;;;13.40;99.90;;;;;;6169523;23;20033;-90
2021/08/22 20:50:19;;;;;;;12.85;7.53;;;13.40;99.90;;;;;;6188202;23;20032;-92
2021/08/22 20:53:29;;;;;;;;;;;;;;;;;;;;;
2021/08/22 20:56:22;;;;;;;6.32;4.60;;;13.30;99.90;;;;;;6187553;23;20035;-91
2021/08/22 20:59:14;;;;;;;14.95;6.85;;;13.30;99.90;;;;;;6189572;23;20021;-91
2021/08/22 21:02:10;;;;;;;7.72;6.00;;;13.30;99.90;;;;;;6189142;23;20021;-92
2021/08/22 21:05:02;;;;;;;11.88;7.75;;;13.40;99.90;;;;;;6188708;23;20392;-89
2021/08/22 21:08:12;;;;;;;14.50;6.68;;;13.40;99.90;;;;;;6152636;23;20036;-90
2021/08/22 21:11:05;;;;;;;11.00;6.88;;;13.50;99.90;;;;;;6168416;23;20029;-92
2021/08/22 21:14:47;;;;;;;8.48;6.38;;;13.40;99.90;;;;;;6186258;23;20036;-91
2021/08/22 21:17:30;;;;;;;8.85;5.80;;;13.50;99.90;;;;;;6194200;23;20420;-90
2021/08/22 21:20:22;;;;;;;10.57;5.72;;;13.60;99.90;;;;;;6191017;23;20025;-91
2021/08/22 21:23:14;;;;;;;10.35;5.95;;;13.60;99.90;;;;;;6166662;23;20439;-93
2021/08/22 21:26:30;;;;;;;12.13;6.23;;;13.80;99.90;;;;;;6192454;23;20036;-91
2021/08/22 21:29:43;;;;;;;8.80;5.38;;;13.90;99.90;;;;;;6069890;23;20037;-90
2021/08/22 21:32:44;;;;;;;9.75;5.40;;;14.00;99.90;;;;;;6072209;23;20034;-90
2021/08/22 21:35:40;;;;;;;10.00;5.35;;;14.00;99.90;;;;;;6073987;23;20398;-91
2021/08/22 21:38:53;;;;;;;8.18;5.18;;;14.00;99.90;;;;;;6080221;23;20023;-92
2021/08/22 21:42:14;;;;;;;12.75;5.72;;;14.10;99.90;;;;;;5966430;24;20035;-91
2021/08/22 21:45:16;;;;;;;9.48;5.50;;;14.10;99.90;;;;;;5967670;24;20077;-91
2021/08/22 21:52:03;;;;;;;11.05;5.25;;;14.00;99.90;;;;;;6024177;23;20027;-91
2021/08/22 21:54:53;;;;;;;11.95;5.65;;;14.10;99.90;;;;;;6022600;23;20089;-92
2021/08/22 21:58:13;;;;;;;;;;;;;;;;;;;;;
2021/08/22 22:01:09;;;;;;;13.15;6.18;;;14.10;99.90;;;;;;6132914;23;20032;-91
2021/08/22 22:04:04;;;;;;;9.45;5.38;;;14.10;99.90;;;;;;6127376;23;20081;-90
2021/08/22 22:07:30;;;;;;;10.85;6.22;;;14.10;99.90;;;;;;6128271;23;20085;-91
2021/08/22 22:10:55;;;;;;;11.40;6.35;;;14.10;99.90;;;;;;6132265;23;20406;-94
2021/08/22 22:14:09;;;;;;;8.98;6.00;;;14.00;99.90;;;;;;6014630;23;20028;-93
2021/08/22 22:25:31;;;;;;;;;;;;;;;;;;;;;
2021/08/22 22:28:52;;;;;;;9.45;6.45;;;13.80;99.90;;;;;;6080604;23;20035;-91
2021/08/22 22:32:06;;;;;;;13.98;7.50;;;13.80;99.90;;;;;;6156400;23;20125;-90
2021/08/22 22:35:25;;;;;;;11.77;6.30;;;13.80;99.90;;;;;;6192435;23;20061;-91
2021/08/22 22:39:05;;;;;;;;;;;;;;;;;;;;;
2021/08/22 22:42:06;;;;;;;11.02;6.30;;;13.90;99.90;;;;;;6191702;23;20071;-91
2021/08/22 22:44:54;;;;;;;12.27;7.30;;;13.80;99.90;;;;;;6193693;23;20124;-92
2021/08/22 22:47:49;;;;;;;13.38;7.30;;;13.90;99.90;;;;;;6170889;23;20037;-90
2021/08/22 22:51:32;;;;;;;9.57;6.65;;;13.90;99.90;;;;;;6191192;23;20416;-90
2021/08/22 22:54:25;;;;;;;13.68;6.60;;;13.90;99.90;;;;;;6170093;23;20025;-92
2021/08/22 22:57:19;;;;;;;12.13;6.70;;;13.90;99.90;;;;;;6189418;23;20107;-93
2021/08/22 23:00:07;;;;;;;9.52;5.90;;;13.90;99.90;;;;;;6187144;23;20024;-92
2021/08/22 23:03:10;;;;;;;10.27;6.32;;;13.80;99.90;;;;;;6167009;23;20112;-91
2021/08/22 23:06:10;;;;;;;11.77;6.53;;;13.80;99.90;;;;;;6167217;23;20044;-91
2021/08/22 23:09:01;;;;;;;11.63;6.80;;;13.80;99.90;;;;;;6169781;23;20032;-91
2021/08/22 23:11:55;;;;;;;9.98;6.65;;;13.70;99.90;;;;;;6165829;23;20112;-92
2021/08/22 23:14:46;;;;;;;10.23;6.38;;;13.70;99.90;;;;;;6187259;23;20028;-93
2021/08/22 23:17:33;;;;;;;11.95;5.90;;;13.60;99.90;;;;;;6168055;23;20029;-90
2021/08/22 23:20:37;;;;;;;8.38;5.85;;;13.60;99.90;;;;;;6188085;23;20364;-92
2021/08/22 23:23:28;;;;;;;8.60;6.68;;;13.60;99.90;;;;;;6170179;23;20029;-91
2021/08/22 23:26:29;;;;;;;12.02;6.47;;;13.60;99.90;;;;;;6189773;23;20145;-88
2021/08/22 23:29:24;;;;;;;14.15;6.60;;;13.60;99.90;;;;;;6190637;23;20033;-92
2021/08/22 23:32:14;;;;;;;13.88;7.00;;;13.60;99.90;;;;;;6167770;23;20400;-91
2021/08/22 23:35:19;;;;;;;7.50;5.72;;;13.60;99.90;;;;;;6176925;23;20028;-92
2021/08/22 23:38:11;;;;;;;12.60;5.95;;;13.60;99.90;;;;;;6175053;23;20097;-92
2021/08/22 23:41:21;;;;;;;12.57;6.13;;;13.60;99.90;;;;;;6077029;23;20027;-91
2021/08/22 23:44:08;;;;;;;9.38;6.18;;;13.60;99.90;;;;;;6057374;23;20023;-91
2021/08/22 23:47:06;;;;;;;8.45;5.78;;;13.60;99.90;;;;;;6073143;23;20074;-91
2021/08/22 23:51:10;;;;;;;12.02;5.43;;;13.60;99.90;;;;;;6053423;23;20027;-93
2021/08/22 23:54:37;;;;;;;;;;;;;;;;;;;;;
2021/08/22 23:58:29;;;;;;;9.80;5.60;;;13.60;99.90;;;;;;5956423;24;20040;-92
